createdAt,value
2019-05-22T00:00:41.286Z,100.0000
2019-05-22T00:01:44.290Z,100.0000
2019-05-22T00:02:47.317Z,100.0000
2019-05-22T00:03:50.307Z,100.0000
2019-05-22T00:04:53.297Z,100.0000
2019-05-22T00:05:56.319Z,100.0000
2019-05-22T00:06:59.296Z,100.0000
2019-05-22T00:08:02.291Z,100.0000
2019-05-22T00:09:05.304Z,100.0000
2019-05-22T00:10:08.321Z,100.0000
2019-05-22T00:11:11.294Z,100.0000
2019-05-22T00:12:14.267Z,100.0000
2019-05-22T00:13:17.301Z,100.0000
2019-05-22T00:14:20.329Z,100.0000
2019-05-22T00:15:23.321Z,100.0000
2019-05-22T00:16:26.313Z,100.0000
2019-05-22T00:17:29.296Z,100.0000
2019-05-22T00:18:32.328Z,100.0000
2019-05-22T00:19:35.304Z,100.0000
2019-05-22T00:20:38.445Z,100.0000
2019-05-22T00:21:41.280Z,100.0000
2019-05-22T00:22:44.316Z,100.0000
2019-05-22T00:23:47.291Z,100.0000
2019-05-22T00:24:50.321Z,100.0000
2019-05-22T00:25:53.323Z,100.0000
2019-05-22T00:26:56.311Z,100.0000
2019-05-22T00:27:59.279Z,100.0000
2019-05-22T00:29:02.349Z,100.0000
2019-05-22T00:30:05.332Z,100.0000
2019-05-22T00:31:08.360Z,100.0000
2019-05-22T00:32:11.298Z,100.0000
2019-05-22T00:33:14.287Z,100.0000
2019-05-22T00:34:17.278Z,100.0000
2019-05-22T00:35:20.305Z,100.0000
2019-05-22T00:36:23.362Z,100.0000
2019-05-22T00:37:26.286Z,100.0000
2019-05-22T00:38:28.324Z,100.0000
2019-05-22T00:39:31.296Z,100.0000
2019-05-22T00:40:34.302Z,100.0000
2019-05-22T00:41:37.295Z,100.0000
2019-05-22T00:42:40.314Z,100.0000
2019-05-22T00:43:43.338Z,100.0000
2019-05-22T00:44:46.300Z,100.0000
2019-05-22T00:45:49.327Z,100.0000
2019-05-22T00:46:52.323Z,100.0000
2019-05-22T00:47:55.283Z,100.0000
2019-05-22T00:48:58.283Z,100.0000
2019-05-22T00:50:00.281Z,100.0000
2019-05-22T00:51:03.301Z,100.0000
2019-05-22T00:52:06.330Z,100.0000
2019-05-22T00:53:09.310Z,100.0000
2019-05-22T00:54:12.288Z,100.0000
2019-05-22T00:55:15.333Z,100.0000
2019-05-22T00:56:18.297Z,100.0000
2019-05-22T00:57:21.331Z,100.0000
2019-05-22T00:58:24.311Z,100.0000
2019-05-22T00:59:26.283Z,100.0000
2019-05-22T01:00:29.307Z,100.0000
2019-05-22T01:01:32.305Z,100.0000
2019-05-22T01:02:35.350Z,100.0000
2019-05-22T01:03:38.305Z,100.0000
2019-05-22T01:04:41.302Z,100.0000
2019-05-22T01:05:44.286Z,100.0000
2019-05-22T01:06:47.272Z,100.0000
2019-05-22T01:07:50.336Z,100.0000
2019-05-22T01:08:53.249Z,100.0000
2019-05-22T01:09:56.347Z,100.0000
2019-05-22T01:10:59.290Z,100.0000
2019-05-22T01:12:02.538Z,100.0000
2019-05-22T01:13:06.302Z,100.0000
2019-05-22T01:14:09.304Z,100.0000
2019-05-22T01:15:12.290Z,100.0000
2019-05-22T01:16:15.292Z,100.0000
2019-05-22T01:17:18.322Z,100.0000
2019-05-22T01:18:20.321Z,100.0000
2019-05-22T01:19:22.474Z,100.0000
2019-05-22T01:20:25.302Z,100.0000
2019-05-22T01:21:28.321Z,100.0000
2019-05-22T01:22:31.292Z,100.0000
2019-05-22T01:23:34.353Z,100.0000
2019-05-22T01:24:37.297Z,100.0000
2019-05-22T01:25:40.288Z,100.0000
2019-05-22T01:26:43.304Z,100.0000
2019-05-22T01:27:46.282Z,100.0000
2019-05-22T01:28:49.369Z,100.0000
2019-05-22T01:29:54.275Z,100.0000
2019-05-22T01:30:57.279Z,100.0000
2019-05-22T01:32:00.293Z,100.0000
2019-05-22T01:33:03.364Z,100.0000
2019-05-22T01:34:06.296Z,100.0000
2019-05-22T01:35:09.300Z,100.0000
2019-05-22T01:36:12.293Z,100.0000
2019-05-22T01:37:15.289Z,100.0000
2019-05-22T01:38:18.291Z,100.0000
2019-05-22T01:39:21.304Z,100.0000
2019-05-22T01:40:24.336Z,100.0000
2019-05-22T01:41:27.307Z,100.0000
2019-05-22T01:42:30.327Z,100.0000
2019-05-22T01:43:32.273Z,100.0000
2019-05-22T01:44:35.308Z,100.0000
2019-05-22T01:45:38.329Z,100.0000
2019-05-22T01:46:41.275Z,100.0000
2019-05-22T01:47:44.322Z,100.0000
2019-05-22T01:48:46.306Z,100.0000
2019-05-22T01:49:49.360Z,100.0000
2019-05-22T01:50:52.287Z,100.0000
2019-05-22T01:51:55.306Z,100.0000
2019-05-22T01:52:58.289Z,100.0000
2019-05-22T01:54:01.292Z,100.0000
2019-05-22T01:55:04.384Z,100.0000
2019-05-22T01:56:07.318Z,100.0000
2019-05-22T01:57:10.310Z,100.0000
2019-05-22T01:58:13.308Z,100.0000
2019-05-22T01:59:16.301Z,100.0000
2019-05-22T02:00:19.320Z,100.0000
2019-05-22T02:01:22.362Z,100.0000
2019-05-22T02:02:25.290Z,100.0000
2019-05-22T02:03:28.294Z,100.0000
2019-05-22T02:04:31.274Z,100.0000
2019-05-22T02:05:34.307Z,100.0000
2019-05-22T02:06:37.299Z,100.0000
2019-05-22T02:07:40.282Z,100.0000
2019-05-22T02:08:43.332Z,100.0000
2019-05-22T02:09:46.281Z,100.0000
2019-05-22T02:10:49.343Z,100.0000
2019-05-22T02:11:52.264Z,100.0000
2019-05-22T02:12:55.454Z,100.0000
2019-05-22T02:13:58.341Z,100.0000
2019-05-22T02:15:01.291Z,100.0000
2019-05-22T02:16:04.337Z,100.0000
2019-05-22T02:17:07.275Z,100.0000
2019-05-22T02:18:10.309Z,100.0000
2019-05-22T02:19:13.285Z,100.0000
2019-05-22T02:20:16.303Z,100.0000
2019-05-22T02:21:19.341Z,100.0000
2019-05-22T02:22:22.281Z,100.0000
2019-05-22T02:23:25.330Z,100.0000
2019-05-22T02:24:28.285Z,100.0000
2019-05-22T02:25:31.361Z,100.0000
2019-05-22T02:26:34.267Z,100.0000
2019-05-22T02:27:37.312Z,100.0000
2019-05-22T02:28:40.269Z,100.0000
2019-05-22T02:29:43.299Z,100.0000
2019-05-22T02:30:46.359Z,100.0000
2019-05-22T02:31:49.310Z,100.0000
2019-05-22T02:32:52.301Z,100.0000
2019-05-22T02:33:55.292Z,100.0000
2019-05-22T02:34:58.330Z,100.0000
2019-05-22T02:36:01.322Z,100.0000
2019-05-22T02:37:03.337Z,100.0000
2019-05-22T02:38:06.307Z,100.0000
2019-05-22T02:39:09.301Z,100.0000
2019-05-22T02:40:11.310Z,100.0000
2019-05-22T02:41:14.464Z,100.0000
2019-05-22T02:42:17.286Z,100.0000
2019-05-22T02:43:20.284Z,100.0000
2019-05-22T02:44:23.332Z,100.0000
2019-05-22T02:45:26.276Z,100.0000
2019-05-22T02:46:29.314Z,100.0000
2019-05-22T02:47:32.325Z,100.0000
2019-05-22T02:48:35.297Z,100.0000
2019-05-22T02:49:38.272Z,100.0000
2019-05-22T02:50:41.311Z,100.0000
2019-05-22T02:51:44.351Z,100.0000
2019-05-22T02:52:46.272Z,100.0000
2019-05-22T02:53:50.302Z,100.0000
2019-05-22T02:54:53.420Z,100.0000
2019-05-22T02:55:56.263Z,100.0000
2019-05-22T02:56:59.297Z,100.0000
2019-05-22T02:58:02.303Z,100.0000
2019-05-22T02:59:05.316Z,100.0000
2019-05-22T03:00:08.300Z,100.0000
2019-05-22T03:01:11.309Z,100.0000
2019-05-22T03:02:14.359Z,100.0000
2019-05-22T03:03:17.295Z,100.0000
2019-05-22T03:04:20.278Z,100.0000
2019-05-22T03:05:23.304Z,100.0000
2019-05-22T03:06:26.297Z,100.0000
2019-05-22T03:07:29.367Z,100.0000
2019-05-22T03:08:32.314Z,100.0000
2019-05-22T03:09:35.309Z,100.0000
2019-05-22T03:10:38.312Z,100.0000
2019-05-22T03:11:41.304Z,100.0000
2019-05-22T03:12:44.317Z,100.0000
2019-05-22T03:13:47.296Z,100.0000
2019-05-22T03:14:50.280Z,100.0000
2019-05-22T03:15:53.277Z,100.0000
2019-05-22T03:16:56.333Z,100.0000
2019-05-22T03:17:59.340Z,100.0000
2019-05-22T03:19:08.975Z,100.0000
2019-05-22T03:20:10.266Z,100.0000
2019-05-22T03:21:13.309Z,100.0000
2019-05-22T03:22:16.303Z,100.0000
2019-05-22T03:23:19.371Z,100.0000
2019-05-22T03:24:22.284Z,100.0000
2019-05-22T03:25:25.312Z,100.0000
2019-05-22T03:26:28.272Z,100.0000
2019-05-22T03:27:31.339Z,100.0000
2019-05-22T03:28:34.305Z,100.0000
2019-05-22T03:29:37.299Z,100.0000
2019-05-22T03:30:40.315Z,100.0000
2019-05-22T03:31:43.292Z,100.0000
2019-05-22T03:32:46.356Z,100.0000
2019-05-22T03:33:49.325Z,100.0000
2019-05-22T03:34:52.281Z,100.0000
2019-05-22T03:35:55.342Z,100.0000
2019-05-22T03:36:58.296Z,100.0000
2019-05-22T03:38:01.291Z,100.0000
2019-05-22T03:39:04.323Z,100.0000
2019-05-22T03:40:07.306Z,100.0000
2019-05-22T03:41:10.296Z,100.0000
2019-05-22T03:42:13.298Z,100.0000
2019-05-22T03:43:16.278Z,100.0000
2019-05-22T03:44:19.347Z,100.0000
2019-05-22T03:45:22.295Z,100.0000
2019-05-22T03:46:25.295Z,100.0000
2019-05-22T03:47:27.293Z,100.0000
2019-05-22T03:48:30.266Z,100.0000
2019-05-22T03:49:33.362Z,100.0000
2019-05-22T03:50:36.281Z,100.0000
2019-05-22T03:51:39.307Z,100.0000
2019-05-22T03:52:42.346Z,100.0000
2019-05-22T03:53:45.306Z,100.0000
2019-05-22T03:54:48.460Z,100.0000
2019-05-22T03:55:51.290Z,100.0000
2019-05-22T03:56:53.304Z,100.0000
2019-05-22T03:57:56.279Z,100.0000
2019-05-22T03:58:59.301Z,100.0000
2019-05-22T04:00:02.396Z,100.0000
2019-05-22T04:01:05.320Z,100.0000
2019-05-22T04:02:08.307Z,100.0000
2019-05-22T04:03:11.270Z,100.0000
2019-05-22T04:04:14.309Z,100.0000
2019-05-22T04:05:17.308Z,100.0000
2019-05-22T04:06:20.297Z,100.0000
2019-05-22T04:07:22.287Z,100.0000
2019-05-22T04:08:25.308Z,100.0000
2019-05-22T04:09:28.308Z,100.0000
2019-05-22T04:10:31.345Z,100.0000
2019-05-22T04:11:34.293Z,100.0000
2019-05-22T04:12:37.276Z,100.0000
2019-05-22T04:13:40.344Z,100.0000
2019-05-22T04:14:43.289Z,100.0000
2019-05-22T04:15:46.345Z,100.0000
2019-05-22T04:16:49.294Z,100.0000
2019-05-22T04:17:52.330Z,100.0000
2019-05-22T04:18:54.270Z,100.0000
2019-05-22T04:19:57.349Z,100.0000
2019-05-22T04:21:00.316Z,100.0000
2019-05-22T04:22:03.293Z,100.0000
2019-05-22T04:23:06.305Z,100.0000
2019-05-22T04:24:09.259Z,100.0000
2019-05-22T04:25:12.302Z,100.0000
2019-05-22T04:26:15.293Z,100.0000
2019-05-22T04:27:18.334Z,100.0000
2019-05-22T04:28:21.294Z,100.0000
2019-05-22T04:29:24.325Z,100.0000
2019-05-22T04:30:27.301Z,100.0000
2019-05-22T04:31:29.340Z,100.0000
2019-05-22T04:32:32.310Z,100.0000
2019-05-22T04:33:34.295Z,100.0000
2019-05-22T04:34:37.315Z,100.0000
2019-05-22T04:35:40.279Z,100.0000
2019-05-22T04:36:43.374Z,100.0000
2019-05-22T04:37:46.298Z,100.0000
2019-05-22T04:38:49.329Z,100.0000
2019-05-22T04:39:52.302Z,100.0000
2019-05-22T04:40:55.308Z,100.0000
2019-05-22T04:41:58.417Z,100.0000
2019-05-22T04:43:01.309Z,100.0000
2019-05-22T04:44:04.317Z,100.0000
2019-05-22T04:45:07.316Z,100.0000
2019-05-22T04:46:10.314Z,100.0000
2019-05-22T04:47:13.312Z,100.0000
2019-05-22T04:48:16.314Z,100.0000
2019-05-22T04:49:19.307Z,100.0000
2019-05-22T04:50:22.305Z,100.0000
2019-05-22T04:51:25.324Z,100.0000
2019-05-22T04:52:28.321Z,100.0000
2019-05-22T04:53:31.323Z,100.0000
2019-05-22T04:54:34.310Z,100.0000
2019-05-22T04:55:37.303Z,100.0000
2019-05-22T04:56:40.310Z,100.0000
2019-05-22T04:57:43.303Z,100.0000
2019-05-22T04:58:46.324Z,100.0000
2019-05-22T04:59:49.287Z,100.0000
2019-05-22T05:00:52.327Z,100.0000
2019-05-22T05:01:55.310Z,100.0000
2019-05-22T05:02:58.311Z,100.0000
2019-05-22T05:04:01.278Z,100.0000
2019-05-22T05:05:04.318Z,100.0000
2019-05-22T05:06:07.294Z,100.0000
2019-05-22T05:07:10.350Z,100.0000
2019-05-22T05:08:13.317Z,100.0000
2019-05-22T05:09:16.318Z,100.0000
2019-05-22T05:10:19.289Z,100.0000
2019-05-22T05:11:22.284Z,100.0000
2019-05-22T05:12:25.350Z,100.0000
2019-05-22T05:13:28.305Z,100.0000
2019-05-22T05:14:33.339Z,100.0000
2019-05-22T05:15:38.275Z,100.0000
2019-05-22T05:16:41.290Z,100.0000
2019-05-22T05:17:44.315Z,100.0000
2019-05-22T05:18:47.344Z,100.0000
2019-05-22T05:19:50.342Z,100.0000
2019-05-22T05:20:53.315Z,100.0000
2019-05-22T05:21:56.327Z,100.0000
2019-05-22T05:22:58.312Z,100.0000
2019-05-22T05:24:01.304Z,100.0000
2019-05-22T05:25:04.308Z,100.0000
2019-05-22T05:26:07.329Z,100.0000
2019-05-22T05:27:10.305Z,100.0000
2019-05-22T05:28:13.334Z,100.0000
2019-05-22T05:29:16.268Z,100.0000
2019-05-22T05:30:19.293Z,100.0000
2019-05-22T05:31:22.294Z,100.0000
2019-05-22T05:32:25.314Z,100.0000
2019-05-22T05:33:28.362Z,100.0000
2019-05-22T05:34:31.290Z,100.0000
2019-05-22T05:35:34.319Z,100.0000
2019-05-22T05:36:37.272Z,100.0000
2019-05-22T05:37:40.306Z,100.0000
2019-05-22T05:38:43.343Z,100.0000
2019-05-22T05:39:46.341Z,100.0000
2019-05-22T05:40:49.487Z,100.0000
2019-05-22T05:41:52.291Z,100.0000
2019-05-22T05:42:55.328Z,100.0000
2019-05-22T05:43:58.309Z,100.0000
2019-05-22T05:45:01.312Z,100.0000
2019-05-22T05:46:04.320Z,100.0000
2019-05-22T05:47:07.325Z,100.0000
2019-05-22T05:48:10.345Z,100.0000
2019-05-22T05:49:13.368Z,100.0000
2019-05-22T05:50:16.321Z,99.7833
2019-05-22T05:51:19.295Z,99.4308
2019-05-22T05:52:22.340Z,97.8469
2019-05-22T05:53:25.334Z,97.4182
2019-05-22T05:54:30.319Z,96.6445
2019-05-22T05:55:32.300Z,96.7453
2019-05-22T05:56:35.301Z,96.7407
2019-05-22T05:57:38.339Z,96.4614
2019-05-22T05:58:41.350Z,96.3516
2019-05-22T05:59:44.340Z,96.4843
2019-05-22T06:00:47.297Z,96.9970
2019-05-22T06:01:50.334Z,96.9238
2019-05-22T06:02:56.490Z,96.2463
2019-05-22T06:04:00.362Z,95.9564
2019-05-22T06:05:03.315Z,95.9289
2019-05-22T06:06:06.330Z,95.3811
2019-05-22T06:07:11.321Z,95.1110
2019-05-22T06:08:14.300Z,95.5810
2019-05-22T06:09:17.348Z,95.4360
2019-05-22T06:10:20.303Z,94.9355
2019-05-22T06:11:23.309Z,94.4961
2019-05-22T06:12:25.348Z,94.3969
2019-05-22T06:13:28.333Z,94.2046
2019-05-22T06:14:31.320Z,93.0404
2019-05-22T06:15:46.508Z,93.7560
2019-05-22T06:16:42.310Z,93.5409
2019-05-22T06:17:45.299Z,92.8954
2019-05-22T06:18:48.356Z,93.7835
2019-05-22T06:19:51.321Z,93.2738
2019-05-22T06:21:03.468Z,93.4356
2019-05-22T06:22:01.308Z,93.5897
2019-05-22T06:23:04.329Z,94.2412
2019-05-22T06:24:07.369Z,94.1024
2019-05-22T06:25:10.338Z,95.0088
2019-05-22T06:26:13.298Z,95.2239
2019-05-22T06:27:16.359Z,94.9554
2019-05-22T06:28:19.316Z,94.6654
2019-05-22T06:29:22.348Z,93.3791
2019-05-22T06:30:25.328Z,93.1319
2019-05-22T06:31:28.331Z,92.5414
2019-05-22T06:32:31.370Z,93.2464
2019-05-22T06:33:34.305Z,92.9534
2019-05-22T06:34:37.360Z,93.1563
2019-05-22T06:35:42.301Z,93.9513
2019-05-22T06:36:45.344Z,94.2580
2019-05-22T06:37:48.322Z,93.7697
2019-05-22T06:38:51.327Z,94.3511
2019-05-22T06:39:54.345Z,94.7799
2019-05-22T06:40:57.311Z,93.8827
2019-05-22T06:42:00.328Z,94.1070
2019-05-22T06:43:03.315Z,94.2534
2019-05-22T06:44:06.342Z,94.7997
2019-05-22T06:45:09.378Z,95.3262
2019-05-22T06:46:12.314Z,95.1782
2019-05-22T06:47:15.310Z,95.2255
2019-05-22T06:48:18.301Z,93.9696
2019-05-22T06:49:21.305Z,94.3542
2019-05-22T06:50:24.334Z,94.9828
2019-05-22T06:51:27.313Z,94.7890
2019-05-22T06:52:30.296Z,93.8827
2019-05-22T06:53:33.303Z,94.4289
2019-05-22T06:54:36.315Z,94.2351
2019-05-22T06:55:39.360Z,93.6141
2019-05-22T06:56:42.313Z,93.5134
2019-05-22T06:57:45.301Z,93.7743
2019-05-22T06:58:48.332Z,92.6665
2019-05-22T07:00:11.657Z,92.9870
2019-05-22T07:00:59.341Z,93.8155
2019-05-22T07:02:02.325Z,93.9834
2019-05-22T07:03:05.302Z,94.3420
2019-05-22T07:04:08.337Z,93.7820
2019-05-22T07:05:11.337Z,95.0454
2019-05-22T07:06:14.297Z,93.2662
2019-05-22T07:07:17.330Z,92.8618
2019-05-22T07:08:20.330Z,92.7291
2019-05-22T07:09:23.321Z,92.0256
2019-05-22T07:10:26.361Z,91.5541
2019-05-22T07:11:29.305Z,91.8135
2019-05-22T07:12:32.294Z,91.5816
2019-05-22T07:13:35.320Z,91.2337
2019-05-22T07:14:38.361Z,90.6416
2019-05-22T07:15:41.317Z,90.5882
2019-05-22T07:16:44.324Z,90.1945
2019-05-22T07:17:47.313Z,90.4036
2019-05-22T07:18:50.327Z,90.4280
2019-05-22T07:19:53.320Z,88.9754
2019-05-22T07:20:55.326Z,90.3410
2019-05-22T07:21:58.338Z,89.8772
2019-05-22T07:23:01.292Z,90.3822
2019-05-22T07:24:04.303Z,90.8339
2019-05-22T07:25:07.324Z,88.9067
2019-05-22T07:26:10.319Z,89.5888
2019-05-22T07:27:13.307Z,89.2958
2019-05-22T07:28:16.319Z,89.8146
2019-05-22T07:29:19.321Z,89.1096
2019-05-22T07:30:22.349Z,88.6473
2019-05-22T07:31:25.336Z,87.2465
2019-05-22T07:32:30.848Z,87.5990
2019-05-22T07:33:34.329Z,89.2180
2019-05-22T07:34:36.360Z,88.2261
2019-05-22T07:36:07.564Z,88.6091
2019-05-22T07:36:47.318Z,88.3482
2019-05-22T07:37:50.393Z,88.3665
2019-05-22T07:38:53.270Z,88.1666
2019-05-22T07:39:56.367Z,87.3426
2019-05-22T07:40:59.297Z,87.2877
2019-05-22T07:42:02.334Z,86.5827
2019-05-22T07:43:05.374Z,87.8538
2019-05-22T07:44:08.287Z,88.4276
2019-05-22T07:45:11.341Z,87.7577
2019-05-22T07:46:14.304Z,87.6814
2019-05-22T07:47:17.343Z,86.9993
2019-05-22T07:48:19.323Z,86.5446
2019-05-22T07:49:22.339Z,85.9373
2019-05-22T07:50:25.316Z,87.1397
2019-05-22T07:51:28.315Z,86.9566
2019-05-22T07:52:31.272Z,84.2649
2019-05-22T07:53:34.308Z,84.6235
2019-05-22T07:54:37.338Z,82.6719
2019-05-22T07:55:40.298Z,82.8840
2019-05-22T07:56:43.338Z,84.7425
2019-05-22T07:57:45.267Z,84.1016
2019-05-22T07:58:47.418Z,79.9298
2019-05-22T07:59:50.314Z,81.5518
2019-05-22T08:00:53.361Z,81.3184
2019-05-22T08:01:56.328Z,81.3321
2019-05-22T08:02:59.337Z,81.9226
2019-05-22T08:04:02.304Z,81.6785
2019-05-22T08:05:05.285Z,79.8810
2019-05-22T08:06:08.348Z,81.3596
2019-05-22T08:07:11.314Z,81.6754
2019-05-22T08:08:14.312Z,82.0966
2019-05-22T08:09:17.332Z,81.4679
2019-05-22T08:10:20.305Z,81.5244
2019-05-22T08:11:26.415Z,82.8138
2019-05-22T08:12:29.353Z,80.6668
2019-05-22T08:13:32.366Z,81.1582
2019-05-22T08:14:35.272Z,80.1862
2019-05-22T08:15:38.406Z,80.4257
2019-05-22T08:16:41.290Z,79.1012
2019-05-22T08:17:44.350Z,77.6562
2019-05-22T08:18:47.330Z,76.9833
2019-05-22T08:19:50.299Z,78.3154
2019-05-22T08:20:52.391Z,77.8302
2019-05-22T08:22:06.946Z,77.1710
2019-05-22T08:23:03.324Z,75.9197
2019-05-22T08:24:06.331Z,74.8760
2019-05-22T08:25:09.296Z,73.4295
2019-05-22T08:26:12.317Z,71.1131
2019-05-22T08:27:14.355Z,70.8980
2019-05-22T08:28:17.300Z,69.5460
2019-05-22T08:29:20.313Z,66.4942
2019-05-22T08:30:23.302Z,65.3040
2019-05-22T08:31:27.677Z,65.0202
2019-05-22T08:32:30.367Z,64.7440
2019-05-22T08:33:33.334Z,64.6479
2019-05-22T08:34:36.316Z,65.3849
2019-05-22T08:35:39.370Z,64.3381
2019-05-22T08:36:42.314Z,63.7919
2019-05-22T08:37:45.311Z,64.2145
2019-05-22T08:38:48.308Z,64.1627
2019-05-22T08:39:51.361Z,63.6820
2019-05-22T08:40:54.336Z,62.3590
2019-05-22T08:41:57.360Z,61.8845
2019-05-22T08:43:00.317Z,60.9232
2019-05-22T08:44:16.297Z,60.1404
2019-05-22T08:45:11.318Z,59.6033
2019-05-22T08:46:14.362Z,59.1913
2019-05-22T08:47:17.348Z,58.7076
2019-05-22T08:48:19.319Z,59.3851
2019-05-22T08:49:22.362Z,58.3947
2019-05-22T08:50:25.292Z,60.1312
2019-05-22T08:51:28.337Z,59.0265
2019-05-22T08:52:31.283Z,59.0036
2019-05-22T08:53:46.784Z,59.6597
2019-05-22T08:54:42.364Z,60.8499
2019-05-22T08:55:45.346Z,60.3006
2019-05-22T08:56:48.341Z,59.4888
2019-05-22T08:57:51.368Z,57.3144
2019-05-22T08:58:54.328Z,57.5845
2019-05-22T08:59:57.320Z,60.1526
2019-05-22T09:00:59.332Z,61.6083
2019-05-22T09:02:02.340Z,62.2583
2019-05-22T09:03:06.375Z,61.1246
2019-05-22T09:04:09.344Z,61.9699
2019-05-22T09:05:12.317Z,61.3840
2019-05-22T09:06:15.317Z,60.9445
2019-05-22T09:07:18.483Z,59.6674
2019-05-22T09:08:22.342Z,60.8270
2019-05-22T09:09:25.342Z,59.8245
2019-05-22T09:10:28.310Z,61.4221
2019-05-22T09:11:31.357Z,62.9099
2019-05-22T09:12:35.376Z,61.8112
2019-05-22T09:13:37.292Z,60.0702
2019-05-22T09:14:40.319Z,58.4833
2019-05-22T09:15:43.313Z,60.3723
2019-05-22T09:16:46.376Z,59.6963
2019-05-22T09:17:51.334Z,59.2523
2019-05-22T09:18:54.308Z,57.4533
2019-05-22T09:19:57.325Z,57.2915
2019-05-22T09:21:00.351Z,55.7733
2019-05-22T09:22:03.357Z,55.1919
2019-05-22T09:23:06.303Z,55.3094
2019-05-22T09:24:08.390Z,53.8994
2019-05-22T09:25:11.331Z,54.1115
2019-05-22T09:26:14.288Z,51.3375
2019-05-22T09:27:17.385Z,51.0124
2019-05-22T09:28:20.295Z,49.9275
2019-05-22T09:29:23.347Z,50.4616
2019-05-22T09:30:26.278Z,47.8065
2019-05-22T09:31:29.344Z,48.1285
2019-05-22T09:32:32.333Z,49.7063
2019-05-22T09:33:35.402Z,53.3471
2019-05-22T09:34:38.282Z,53.2814
2019-05-22T09:35:41.437Z,54.3435
2019-05-22T09:36:44.316Z,53.9681
2019-05-22T09:37:47.341Z,55.4025
2019-05-22T09:38:52.419Z,52.1187
2019-05-22T09:39:56.271Z,49.2897
2019-05-22T09:40:59.296Z,47.5868
2019-05-22T09:42:02.320Z,47.7516
2019-05-22T09:43:05.351Z,50.5867
2019-05-22T09:44:08.298Z,50.1595
2019-05-22T09:45:11.369Z,50.3334
2019-05-22T09:46:14.283Z,48.7633
2019-05-22T09:47:17.318Z,48.9326
2019-05-22T09:48:20.390Z,48.0827
2019-05-22T09:49:24.189Z,45.7328
2019-05-22T09:50:27.325Z,46.0548
2019-05-22T09:51:30.300Z,47.7760
2019-05-22T09:52:33.328Z,46.3935
2019-05-22T09:53:36.327Z,45.9586
2019-05-22T09:54:39.318Z,45.1011
2019-05-22T09:55:46.944Z,42.2950
2019-05-22T09:56:50.295Z,44.5426
2019-05-22T09:57:53.299Z,44.9958
2019-05-22T09:58:56.344Z,46.3142
2019-05-22T09:59:59.360Z,46.4790
2019-05-22T10:01:02.353Z,46.1906
2019-05-22T10:02:04.357Z,46.5080
2019-05-22T10:03:07.311Z,47.9316
2019-05-22T10:04:09.367Z,43.8071
2019-05-22T10:05:12.343Z,45.5741
2019-05-22T10:06:15.344Z,48.0690
2019-05-22T10:07:17.334Z,45.2125
2019-05-22T10:08:20.275Z,47.4998
2019-05-22T10:09:23.371Z,46.5888
2019-05-22T10:10:26.363Z,46.2745
2019-05-22T10:11:29.314Z,45.6382
2019-05-22T10:12:32.317Z,42.7298
2019-05-22T10:13:35.647Z,44.0360
2019-05-22T10:14:38.676Z,43.4623
2019-05-22T10:15:42.352Z,43.2532
2019-05-22T10:16:45.323Z,44.5029
2019-05-22T10:17:48.321Z,42.6795
2019-05-22T10:18:53.362Z,41.4084
2019-05-22T10:19:57.427Z,38.6160
2019-05-22T10:20:59.339Z,37.2549
2019-05-22T10:22:02.340Z,39.2020
2019-05-22T10:23:14.819Z,40.0488
2019-05-22T10:24:13.293Z,39.6857
2019-05-22T10:25:17.307Z,37.9065
2019-05-22T10:26:20.293Z,37.9278
2019-05-22T10:27:23.288Z,35.7809
2019-05-22T10:28:26.343Z,37.1679
2019-05-22T10:29:32.131Z,36.1791
2019-05-22T10:30:35.349Z,38.6694
2019-05-22T10:31:38.300Z,37.6959
2019-05-22T10:32:40.345Z,35.1400
2019-05-22T10:33:43.318Z,35.6146
2019-05-22T10:34:46.343Z,34.5983
2019-05-22T10:35:49.375Z,34.7860
2019-05-22T10:36:52.338Z,35.9716
2019-05-22T10:37:55.293Z,35.8175
2019-05-22T10:38:58.326Z,37.8592
2019-05-22T10:40:01.361Z,35.7397
2019-05-22T10:41:04.311Z,35.4269
2019-05-22T10:42:07.322Z,38.0941
2019-05-22T10:43:10.328Z,37.7188
2019-05-22T10:44:13.336Z,36.1425
2019-05-22T10:45:16.304Z,35.9731
2019-05-22T10:46:19.345Z,35.2712
2019-05-22T10:47:22.311Z,38.0240
2019-05-22T10:48:25.324Z,39.2065
2019-05-22T10:49:29.385Z,37.0336
2019-05-22T10:50:32.301Z,37.7050
2019-05-22T10:51:35.382Z,35.3918
2019-05-22T10:52:38.311Z,35.3445
2019-05-22T10:53:40.382Z,36.2936
2019-05-22T10:54:42.508Z,36.8780
2019-05-22T10:55:44.487Z,36.2142
2019-05-22T10:56:47.350Z,33.1563
2019-05-22T10:57:50.293Z,30.6126
2019-05-22T10:58:53.327Z,32.6116
2019-05-22T10:59:56.335Z,33.8262
2019-05-22T11:00:59.278Z,35.8206
2019-05-22T11:02:02.435Z,37.1542
2019-05-22T11:03:05.316Z,37.0535
2019-05-22T11:04:08.307Z,35.3536
2019-05-22T11:05:11.295Z,35.9365
2019-05-22T11:06:14.323Z,35.6970
2019-05-22T11:07:17.363Z,39.2111
2019-05-22T11:08:19.350Z,36.0082
2019-05-22T11:09:22.374Z,35.2438
2019-05-22T11:10:25.309Z,36.8475
2019-05-22T11:11:28.330Z,34.3206
2019-05-22T11:12:31.380Z,33.7148
2019-05-22T11:13:34.586Z,34.6578
2019-05-22T11:14:37.332Z,33.2891
2019-05-22T11:15:40.294Z,33.6278
2019-05-22T11:16:43.319Z,35.6466
2019-05-22T11:17:46.369Z,35.6054
2019-05-22T11:18:49.324Z,37.1679
2019-05-22T11:19:52.328Z,33.7713
2019-05-22T11:20:55.343Z,32.8557
2019-05-22T11:22:00.293Z,29.6330
2019-05-22T11:23:03.346Z,32.7489
2019-05-22T11:24:06.323Z,35.4147
2019-05-22T11:25:09.311Z,36.7102
2019-05-22T11:26:12.289Z,35.5779
2019-05-22T11:27:15.345Z,37.2778
2019-05-22T11:28:18.352Z,37.7234
2019-05-22T11:29:21.286Z,37.4411
2019-05-22T11:30:24.333Z,36.8826
2019-05-22T11:31:27.332Z,35.9548
2019-05-22T11:32:30.306Z,35.2895
2019-05-22T11:33:34.380Z,33.8613
2019-05-22T11:34:37.291Z,31.8013
2019-05-22T11:35:40.320Z,34.6456
2019-05-22T11:36:43.310Z,32.5536
2019-05-22T11:37:46.290Z,37.1038
2019-05-22T11:38:49.352Z,35.4604
2019-05-22T11:39:52.343Z,37.4731
2019-05-22T11:40:55.312Z,38.5748
2019-05-22T11:41:57.334Z,39.5254
2019-05-22T11:43:00.344Z,37.9019
2019-05-22T11:44:03.324Z,38.2116
2019-05-22T11:45:06.305Z,38.8037
2019-05-22T11:46:09.310Z,39.5132
2019-05-22T11:47:11.322Z,42.5513
2019-05-22T11:48:14.321Z,39.5026
2019-05-22T11:49:17.306Z,39.9466
2019-05-22T11:50:20.301Z,39.9985
2019-05-22T11:51:22.318Z,39.5209
2019-05-22T11:52:25.360Z,39.6582
2019-05-22T11:53:28.309Z,38.3124
2019-05-22T11:54:31.363Z,40.5920
2019-05-22T11:55:45.088Z,39.3484
2019-05-22T11:56:42.276Z,40.4974
2019-05-22T11:57:45.298Z,41.4893
2019-05-22T11:58:48.345Z,43.7415
2019-05-22T11:59:51.326Z,44.6082
2019-05-22T12:00:54.337Z,46.5309
2019-05-22T12:01:57.281Z,43.2029
2019-05-22T12:03:00.309Z,43.6408
2019-05-22T12:04:03.347Z,43.2242
2019-05-22T12:05:05.374Z,42.4155
2019-05-22T12:06:08.298Z,43.5767
2019-05-22T12:07:11.320Z,42.7939
2019-05-22T12:08:14.291Z,43.8804
2019-05-22T12:09:17.338Z,42.8733
2019-05-22T12:10:20.376Z,44.4007
2019-05-22T12:11:22.332Z,42.7497
2019-05-22T12:12:25.342Z,44.8081
2019-05-22T12:13:27.429Z,45.1286
2019-05-22T12:14:29.496Z,45.0385
2019-05-22T12:15:32.313Z,42.1546
2019-05-22T12:16:35.335Z,43.3341
2019-05-22T12:17:39.033Z,44.3229
2019-05-22T12:18:42.349Z,43.0732
2019-05-22T12:19:45.339Z,43.7339
2019-05-22T12:20:48.341Z,40.7813
2019-05-22T12:21:51.301Z,41.7594
2019-05-22T12:22:54.389Z,41.0773
2019-05-22T12:23:57.299Z,43.6683
2019-05-22T12:25:00.338Z,43.8758
2019-05-22T12:26:03.345Z,43.1983
2019-05-22T12:27:07.470Z,43.0274
2019-05-22T12:28:11.312Z,42.5208
2019-05-22T12:29:17.129Z,43.3387
2019-05-22T12:30:21.375Z,39.6735
2019-05-22T12:31:24.362Z,41.8509
2019-05-22T12:32:27.337Z,39.7559